createdAt,value
2022-09-20T00:01:33.680Z,101036.88
2022-09-20T00:04:05.413Z,101035.25
2022-09-20T00:06:34.295Z,101037.59
2022-09-20T00:09:03.343Z,101039.25
2022-09-20T00:11:33.913Z,101035.19
2022-09-20T00:14:03.482Z,101036.72
2022-09-20T00:16:33.642Z,101042.78
2022-09-20T00:19:04.200Z,101040.25
2022-09-20T00:21:34.149Z,101045.38
2022-09-20T00:24:02.051Z,101037.00
2022-09-20T00:26:30.228Z,101053.16
2022-09-20T00:28:59.000Z,101039.38
2022-09-20T00:31:27.044Z,101043.53
2022-09-20T00:34:14.793Z,101046.06
2022-09-20T00:36:42.900Z,101039.78
2022-09-20T00:39:13.342Z,101045.50
2022-09-20T00:41:41.013Z,101033.44
2022-09-20T00:44:57.174Z,101030.53
2022-09-20T00:47:34.372Z,101026.91
2022-09-20T00:50:14.671Z,101022.72
2022-09-20T00:52:47.199Z,101021.38
2022-09-20T00:55:17.035Z,101013.25
2022-09-20T00:57:46.676Z,101023.84
2022-09-20T01:00:15.099Z,101015.38
2022-09-20T01:02:48.781Z,101013.25
2022-09-20T01:05:18.611Z,101014.53
2022-09-20T01:07:50.365Z,101018.69
2022-09-20T01:10:18.455Z,101018.66
2022-09-20T01:12:47.617Z,101026.75
2022-09-20T01:15:16.861Z,101029.13
2022-09-20T01:17:49.715Z,101036.25
2022-09-20T01:20:17.733Z,101039.19
2022-09-20T01:23:26.974Z,101033.91
2022-09-20T01:26:28.593Z,101036.94
2022-09-20T01:29:17.438Z,101042.53
2022-09-20T01:31:54.282Z,101049.31
2022-09-20T01:34:31.749Z,101051.13
2022-09-20T01:37:12.044Z,101047.22
2022-09-20T01:40:28.129Z,101041.13
2022-09-20T01:43:07.519Z,101044.19
2022-09-20T01:45:35.429Z,101048.09
2022-09-20T01:48:22.573Z,101043.06
2022-09-20T01:50:53.352Z,101051.81
2022-09-20T01:53:49.272Z,101048.03
2022-09-20T01:56:36.097Z,101049.28
2022-09-20T01:59:25.724Z,101050.75
2022-09-20T02:01:53.877Z,101044.38
2022-09-20T02:04:33.956Z,101046.47
2022-09-20T02:07:08.049Z,101051.38
2022-09-20T02:09:59.863Z,101052.47
2022-09-20T02:12:53.291Z,101046.91
2022-09-20T02:16:08.845Z,101054.16
2022-09-20T02:18:45.482Z,101047.66
2022-09-20T02:21:28.859Z,101050.00
2022-09-20T02:24:17.861Z,101053.78
2022-09-20T02:27:07.949Z,101058.91
2022-09-20T02:29:53.431Z,101048.19
2022-09-20T02:32:34.843Z,101059.50
2022-09-20T02:35:20.328Z,101058.53
2022-09-20T02:37:50.680Z,101051.25
2022-09-20T02:40:31.077Z,101051.09
2022-09-20T02:43:07.850Z,101047.72
2022-09-20T02:45:50.697Z,101048.56
2022-09-20T02:48:25.063Z,101053.69
2022-09-20T02:51:20.616Z,101049.50
2022-09-20T02:54:27.215Z,101047.28
2022-09-20T02:57:14.886Z,101051.31
2022-09-20T02:59:45.846Z,101044.06
2022-09-20T03:02:26.152Z,101046.91
2022-09-20T03:05:22.033Z,101043.97
2022-09-20T03:07:58.288Z,101049.56
2022-09-20T03:10:45.110Z,101042.97
2022-09-20T03:13:28.865Z,101036.59
2022-09-20T03:16:18.479Z,101040.63
2022-09-20T03:18:51.986Z,101038.50
2022-09-20T03:21:36.070Z,101043.34
2022-09-20T03:24:03.532Z,101038.66
2022-09-20T03:26:57.142Z,101041.56
2022-09-20T03:30:03.736Z,101045.41
2022-09-20T03:32:43.575Z,101048.78
2022-09-20T03:35:34.552Z,101041.81
2022-09-20T03:38:26.214Z,101046.53
2022-09-20T03:41:20.240Z,101043.91
2022-09-20T03:43:56.577Z,101047.88
2022-09-20T03:46:29.329Z,101049.44
2022-09-20T03:49:28.191Z,101052.97
2022-09-20T03:52:01.534Z,101053.94
2022-09-20T03:54:34.974Z,101052.25
2022-09-20T03:57:20.862Z,101050.59
2022-09-20T04:00:17.154Z,101053.88
2022-09-20T04:03:03.318Z,101048.88
2022-09-20T04:06:04.243Z,101050.28
2022-09-20T04:08:40.618Z,101045.75
2022-09-20T04:11:22.408Z,101044.38
2022-09-20T04:14:11.258Z,101058.63
2022-09-20T04:17:05.982Z,101060.25
2022-09-20T04:19:52.993Z,101049.97
2022-09-20T04:22:25.383Z,101057.19
2022-09-20T04:24:53.217Z,101050.09
2022-09-20T04:27:25.339Z,101061.25
2022-09-20T04:30:19.824Z,101062.66
2022-09-20T04:32:56.556Z,101061.25
2022-09-20T04:36:11.623Z,101067.31
2022-09-20T04:38:39.539Z,101084.03
2022-09-20T04:42:01.027Z,101067.75
2022-09-20T04:44:31.118Z,101070.41
2022-09-20T04:46:58.568Z,101076.41
2022-09-20T04:49:53.295Z,101089.75
2022-09-20T04:52:21.067Z,101090.84
2022-09-20T04:55:26.289Z,101093.56
2022-09-20T04:58:19.295Z,101098.13
2022-09-20T05:00:59.283Z,101101.75
2022-09-20T05:03:48.453Z,101098.25
2022-09-20T05:06:57.553Z,101101.88
2022-09-20T05:09:28.354Z,101110.13
2022-09-20T05:12:38.623Z,101116.34
2022-09-20T05:15:21.444Z,101107.00
2022-09-20T05:18:10.918Z,101115.16
2022-09-20T05:20:47.575Z,101121.63
2022-09-20T05:23:33.168Z,101123.06
2022-09-20T05:26:08.619Z,101126.50
2022-09-20T05:28:36.510Z,101129.84
2022-09-20T05:31:16.223Z,101133.97
2022-09-20T05:34:03.885Z,101131.59
2022-09-20T05:36:50.166Z,101130.59
2022-09-20T05:39:35.296Z,101145.59
2022-09-20T05:42:19.970Z,101146.16
2022-09-20T05:44:59.731Z,101158.13
2022-09-20T05:47:52.510Z,101157.81
2022-09-20T05:51:04.994Z,101164.63
2022-09-20T05:54:05.271Z,101166.25
2022-09-20T05:57:25.107Z,101170.44
2022-09-20T05:59:52.654Z,101173.41
2022-09-20T06:02:33.916Z,101184.22
2022-09-20T06:05:17.219Z,101173.28
2022-09-20T06:08:03.881Z,101182.91
2022-09-20T06:10:56.713Z,101181.31
2022-09-20T06:13:42.047Z,101179.84
2022-09-20T06:16:18.268Z,101180.16
2022-09-20T06:19:13.099Z,101178.19
2022-09-20T06:21:55.024Z,101179.78
2022-09-20T06:24:56.409Z,101182.81
2022-09-20T06:27:34.711Z,101190.91
2022-09-20T06:30:07.989Z,101187.81
2022-09-20T06:32:36.069Z,101186.19
2022-09-20T06:35:05.200Z,101180.56
2022-09-20T06:38:13.198Z,101181.59
2022-09-20T06:41:06.752Z,101178.69
2022-09-20T06:43:38.224Z,101179.50
2022-09-20T06:46:07.278Z,101183.72
2022-09-20T06:48:35.374Z,101187.88
2022-09-20T06:51:03.872Z,101175.47
2022-09-20T06:53:33.506Z,101174.50
2022-09-20T06:56:01.975Z,101174.09
2022-09-20T06:58:29.900Z,101177.53
2022-09-20T07:00:58.141Z,101174.09
2022-09-20T07:03:26.477Z,101170.00
2022-09-20T07:05:54.461Z,101182.03
2022-09-20T07:08:22.002Z,101183.06
2022-09-20T07:10:49.771Z,101179.22
2022-09-20T07:13:19.405Z,101187.50
2022-09-20T07:15:47.362Z,101178.34
2022-09-20T07:18:14.860Z,101182.44
2022-09-20T07:20:42.335Z,101184.41
2022-09-20T07:23:10.284Z,101177.94
2022-09-20T07:25:38.014Z,101179.34
2022-09-20T07:28:05.990Z,101183.13
2022-09-20T07:30:34.020Z,101183.72
2022-09-20T07:33:02.501Z,101187.88
2022-09-20T07:35:30.246Z,101185.84
2022-09-20T07:37:58.491Z,101187.97
2022-09-20T07:40:27.483Z,101191.81
2022-09-20T07:42:58.034Z,101186.63
2022-09-20T07:45:26.490Z,101196.31
2022-09-20T07:47:54.722Z,101193.53
2022-09-20T07:50:22.642Z,101199.91
2022-09-20T07:52:50.520Z,101196.38
2022-09-20T07:55:18.211Z,101197.78
2022-09-20T07:57:46.317Z,101204.53
2022-09-20T08:00:14.655Z,101196.06
2022-09-20T08:02:42.604Z,101199.19
2022-09-20T08:05:10.899Z,101204.28
2022-09-20T08:07:39.458Z,101201.59
2022-09-20T08:10:07.992Z,101205.16
2022-09-20T08:15:24.577Z,101196.22
2022-09-20T08:17:52.666Z,101201.09
2022-09-20T08:20:20.332Z,101205.69
2022-09-20T08:23:06.361Z,101209.66
2022-09-20T08:25:35.888Z,101211.22
2022-09-20T08:28:03.398Z,101210.44
2022-09-20T08:30:31.351Z,101215.13
2022-09-20T08:32:59.652Z,101221.28
2022-09-20T08:35:29.574Z,101212.38
2022-09-20T08:39:55.689Z,101208.75
2022-09-20T08:40:45.310Z,101208.75
2022-09-20T08:43:13.192Z,101208.63
2022-09-20T08:45:41.108Z,101207.06
2022-09-20T08:48:16.349Z,101208.16
2022-09-20T08:50:44.253Z,101202.75
2022-09-20T08:53:14.923Z,101207.28
2022-09-20T08:55:48.855Z,101205.44
2022-09-20T08:58:16.560Z,101205.06
2022-09-20T09:00:47.050Z,101194.59
2022-09-20T09:03:19.045Z,101195.31
2022-09-20T09:05:55.262Z,101190.56
2022-09-20T09:08:29.426Z,101191.06
2022-09-20T09:11:17.517Z,101197.63
2022-09-20T09:14:27.311Z,101192.44
2022-09-20T09:16:54.881Z,101193.53
2022-09-20T09:19:33.289Z,101199.53
2022-09-20T09:22:05.895Z,101189.75
2022-09-20T09:24:33.918Z,101190.94
2022-09-20T09:27:19.453Z,101176.72
2022-09-20T09:29:52.255Z,101179.25
2022-09-20T09:32:31.294Z,101175.09
2022-09-20T09:35:22.226Z,101176.44
2022-09-20T09:37:56.842Z,101173.63
2022-09-20T09:40:24.925Z,101169.97
2022-09-20T09:42:55.404Z,101173.59
2022-09-20T09:45:28.251Z,101161.84
2022-09-20T09:47:57.842Z,101165.56
2022-09-20T09:50:30.474Z,101161.97
2022-09-20T09:53:06.475Z,101162.31
2022-09-20T09:56:00.916Z,101154.56
2022-09-20T09:58:40.505Z,101154.78
2022-09-20T10:01:24.644Z,101155.72
2022-09-20T10:04:36.565Z,101151.13
2022-09-20T10:07:10.601Z,101146.66
2022-09-20T10:09:52.115Z,101135.06
2022-09-20T10:12:50.275Z,101146.16
2022-09-20T10:15:26.856Z,101140.34
2022-09-20T10:18:18.402Z,101140.56
2022-09-20T10:20:54.152Z,101141.25
2022-09-20T10:24:03.016Z,101126.53
2022-09-20T10:26:55.287Z,101128.50
2022-09-20T10:29:39.774Z,101118.97
2022-09-20T10:32:39.626Z,101118.88
2022-09-20T10:35:35.177Z,101117.31
2022-09-20T10:38:26.335Z,101127.84
2022-09-20T10:41:42.961Z,101118.91
2022-09-20T10:44:19.901Z,101114.09
2022-09-20T10:46:51.661Z,101114.78
2022-09-20T10:49:51.128Z,101115.03
2022-09-20T10:52:55.917Z,101108.75
2022-09-20T10:55:30.550Z,101109.69
2022-09-20T10:58:30.869Z,101106.59
2022-09-20T11:01:18.746Z,101108.00
2022-09-20T11:03:49.376Z,101101.78
2022-09-20T11:06:51.996Z,101108.16
2022-09-20T11:09:34.433Z,101100.22
2022-09-20T11:12:16.301Z,101096.00
2022-09-20T11:15:12.832Z,101100.34
2022-09-20T11:18:12.526Z,101101.72
2022-09-20T11:20:47.031Z,101097.09
2022-09-20T11:23:25.339Z,101096.59
2022-09-20T11:26:15.164Z,101092.59
2022-09-20T11:28:49.057Z,101097.75
2022-09-20T11:31:30.517Z,101095.78
2022-09-20T11:34:12.025Z,101088.75
2022-09-20T11:36:52.305Z,101096.47
2022-09-20T11:39:55.515Z,101083.94
2022-09-20T11:42:28.712Z,101097.25
2022-09-20T11:44:57.601Z,101084.19
2022-09-20T11:48:02.101Z,101090.69
2022-09-20T11:51:09.741Z,101080.31
2022-09-20T11:53:53.318Z,101087.00
2022-09-20T11:56:32.374Z,101087.44
2022-09-20T11:59:02.773Z,101080.13
2022-09-20T12:01:39.969Z,101079.66
2022-09-20T12:04:32.274Z,101076.16
2022-09-20T12:07:32.302Z,101072.56
2022-09-20T12:10:03.845Z,101077.19
2022-09-20T12:12:41.649Z,101073.44
2022-09-20T12:15:21.410Z,101077.94
2022-09-20T12:17:49.766Z,101074.13
2022-09-20T12:20:33.039Z,101070.44
2022-09-20T12:23:41.075Z,101052.41
2022-09-20T12:26:21.088Z,101053.22
2022-09-20T12:28:50.336Z,101050.69
2022-09-20T12:31:29.633Z,101035.91
2022-09-20T12:34:04.896Z,101025.69
2022-09-20T12:36:42.498Z,101045.09
2022-09-20T12:39:17.571Z,101047.38
2022-09-20T12:42:03.081Z,101051.50
2022-09-20T12:44:49.125Z,101041.75
2022-09-20T12:47:24.822Z,101035.00
2022-09-20T12:50:16.643Z,101034.81
2022-09-20T12:52:51.251Z,101030.28
2022-09-20T12:55:28.023Z,101022.09
2022-09-20T12:58:04.551Z,101017.78
2022-09-20T13:00:39.590Z,101023.59
2022-09-20T13:03:21.687Z,101008.97
2022-09-20T13:05:52.711Z,101013.91
2022-09-20T13:08:26.182Z,101014.53
2022-09-20T13:11:09.220Z,101011.34
2022-09-20T13:13:44.167Z,101005.28
2022-09-20T13:16:23.129Z,101007.66
2022-09-20T13:19:05.812Z,101000.09
2022-09-20T13:21:37.265Z,101011.38
2022-09-20T13:24:06.538Z,101005.75
2022-09-20T13:26:40.584Z,100990.25
2022-09-20T13:29:18.996Z,101001.88
2022-09-20T13:31:47.751Z,100993.44
2022-09-20T13:34:24.584Z,100996.53
2022-09-20T13:36:56.402Z,100993.41
2022-09-20T13:39:36.236Z,100980.94
2022-09-20T13:42:16.375Z,100969.75
2022-09-20T13:44:44.461Z,100980.00
2022-09-20T13:47:23.465Z,100977.22
2022-09-20T13:49:51.498Z,100969.50
2022-09-20T13:52:31.379Z,100971.09
2022-09-20T13:54:59.349Z,100974.59
2022-09-20T13:57:28.958Z,100969.47
2022-09-20T13:59:58.090Z,100973.06
2022-09-20T14:02:34.062Z,100969.47
2022-09-20T14:05:05.280Z,100963.38
2022-09-20T14:07:36.471Z,100969.09
2022-09-20T14:10:04.994Z,100967.84
2022-09-20T14:12:33.854Z,100962.88
2022-09-20T14:15:11.763Z,100963.75
2022-09-20T14:17:40.073Z,100965.63
2022-09-20T14:20:15.540Z,100968.84
2022-09-20T14:22:44.954Z,100963.69
2022-09-20T14:25:12.504Z,100959.56
2022-09-20T14:27:40.860Z,100946.44
2022-09-20T14:30:29.716Z,100947.09
2022-09-20T14:32:59.075Z,100941.09
2022-09-20T14:35:27.938Z,100932.16
2022-09-20T14:38:01.382Z,100933.47
2022-09-20T14:40:40.629Z,100925.38
2022-09-20T14:43:27.011Z,100925.34
2022-09-20T14:45:57.721Z,100928.06
2022-09-20T14:48:25.718Z,100919.78
2022-09-20T14:51:18.853Z,100918.97
2022-09-20T14:54:08.384Z,100918.84
2022-09-20T14:56:39.765Z,100920.69
2022-09-20T14:59:24.702Z,100919.38
2022-09-20T15:02:00.984Z,100922.34
2022-09-20T15:04:29.716Z,100919.72
2022-09-20T15:07:02.265Z,100913.09
2022-09-20T15:09:30.879Z,100915.03
2022-09-20T15:12:16.866Z,100913.94
2022-09-20T15:14:44.801Z,100909.53
2022-09-20T15:17:21.004Z,100911.59
2022-09-20T15:19:50.207Z,100916.78
2022-09-20T15:22:18.722Z,100918.19
2022-09-20T15:24:46.753Z,100906.41
2022-09-20T15:27:15.869Z,100914.03
2022-09-20T15:29:43.381Z,100913.38
2022-09-20T15:32:11.743Z,100908.19
2022-09-20T15:34:39.250Z,100912.75
2022-09-20T15:37:07.286Z,100907.97
2022-09-20T15:39:35.780Z,100913.81
2022-09-20T15:42:04.056Z,100920.03
2022-09-20T15:44:32.722Z,100910.63
2022-09-20T15:47:00.575Z,100914.06
2022-09-20T15:49:28.812Z,100918.19
2022-09-20T15:51:57.290Z,100918.50
2022-09-20T15:54:26.717Z,100924.09
2022-09-20T15:56:54.260Z,100919.84
2022-09-20T15:59:23.293Z,100924.47
2022-09-20T16:01:51.756Z,100923.91
2022-09-20T16:04:20.539Z,100912.69
2022-09-20T16:06:50.283Z,100921.59
2022-09-20T16:09:18.900Z,100916.97
2022-09-20T16:11:48.557Z,100918.19
2022-09-20T16:14:16.240Z,100915.91
2022-09-20T16:16:43.946Z,100918.13
2022-09-20T16:19:18.022Z,100918.53
2022-09-20T16:21:57.768Z,100913.47
2022-09-20T16:24:29.215Z,100915.19
2022-09-20T16:26:58.611Z,100926.25
2022-09-20T16:29:29.134Z,100928.75
2022-09-20T16:31:58.843Z,100927.50
2022-09-20T16:34:31.511Z,100934.47
2022-09-20T16:37:01.840Z,100930.38
2022-09-20T16:39:31.003Z,100925.50
2022-09-20T16:42:04.114Z,100932.69
2022-09-20T16:44:33.763Z,100934.47
2022-09-20T16:47:02.762Z,100928.84
2022-09-20T16:49:30.714Z,100934.06
2022-09-20T16:51:58.511Z,100934.19
2022-09-20T16:54:31.051Z,100931.09
2022-09-20T16:56:59.976Z,100937.78
2022-09-20T16:59:27.641Z,100927.03
2022-09-20T17:01:55.533Z,100934.66
2022-09-20T17:04:23.541Z,100932.94
2022-09-20T17:06:52.139Z,100935.88
2022-09-20T17:09:19.676Z,100948.63
2022-09-20T17:11:50.277Z,100944.34
2022-09-20T17:14:20.524Z,100948.09
2022-09-20T17:16:49.288Z,100946.63
2022-09-20T17:19:20.105Z,100950.88
2022-09-20T17:21:50.745Z,100957.19
2022-09-20T17:24:20.536Z,100959.06
2022-09-20T17:26:50.409Z,100957.69
2022-09-20T17:29:19.548Z,100973.53
2022-09-20T17:31:55.134Z,100970.22
2022-09-20T17:34:25.494Z,100974.88
2022-09-20T17:36:56.918Z,100983.88
2022-09-20T17:39:24.533Z,100984.19
2022-09-20T17:41:52.117Z,100978.31
2022-09-20T17:44:19.833Z,100984.50
2022-09-20T17:46:54.177Z,100997.50
2022-09-20T17:49:23.766Z,100995.78
2022-09-20T17:51:56.415Z,100997.81
2022-09-20T17:54:24.582Z,101004.22
2022-09-20T17:56:55.993Z,101015.31
2022-09-20T17:59:24.192Z,101007.09
2022-09-20T18:01:54.390Z,101011.44
2022-09-20T18:04:24.552Z,101014.25
2022-09-20T18:06:53.798Z,101017.63
2022-09-20T18:09:24.402Z,101012.88
2022-09-20T18:11:54.328Z,101023.97
2022-09-20T18:14:28.083Z,101015.22
2022-09-20T18:16:59.205Z,101024.25
2022-09-20T18:19:34.221Z,101029.91
2022-09-20T18:22:02.675Z,101033.13
2022-09-20T18:24:31.136Z,101036.06
2022-09-20T18:27:00.916Z,101033.66
2022-09-20T18:29:29.357Z,101038.97
2022-09-20T18:31:58.009Z,101032.16
2022-09-20T18:34:32.153Z,101034.03
2022-09-20T18:37:01.228Z,101044.31
2022-09-20T18:39:33.777Z,101044.16
2022-09-20T18:42:02.649Z,101058.38
2022-09-20T18:44:33.677Z,101053.22
2022-09-20T18:47:05.768Z,101062.03
2022-09-20T18:49:34.447Z,101065.09
2022-09-20T18:52:02.879Z,101064.56
2022-09-20T18:54:32.204Z,101067.00
2022-09-20T18:57:00.562Z,101078.56
2022-09-20T18:59:28.487Z,101080.94
2022-09-20T19:02:30.237Z,101076.34
2022-09-20T19:05:28.789Z,101076.81
2022-09-20T19:08:11.487Z,101084.38
2022-09-20T19:10:47.371Z,101093.66
2022-09-20T19:13:30.353Z,101101.66
2022-09-20T19:16:07.342Z,101091.78
2022-09-20T19:19:07.999Z,101106.19
2022-09-20T19:21:58.747Z,101108.50
2022-09-20T19:25:02.449Z,101107.25
2022-09-20T19:27:31.007Z,101110.47
2022-09-20T19:29:59.135Z,101117.19
2022-09-20T19:32:27.948Z,101110.75
2022-09-20T19:35:01.659Z,101123.50
2022-09-20T19:37:32.205Z,101125.41
2022-09-20T19:40:00.343Z,101124.25
2022-09-20T19:43:00.182Z,101130.84
2022-09-20T19:45:47.737Z,101133.28
2022-09-20T19:48:41.120Z,101132.47
2022-09-20T19:51:12.142Z,101127.13
2022-09-20T19:53:40.891Z,101134.09
2022-09-20T19:56:18.694Z,101135.94
2022-09-20T19:58:47.692Z,101138.09
2022-09-20T20:01:15.891Z,101144.78
2022-09-20T20:03:46.200Z,101150.38
2022-09-20T20:06:22.527Z,101143.88
2022-09-20T20:09:20.741Z,101147.50
2022-09-20T20:12:12.267Z,101148.06
2022-09-20T20:15:21.572Z,101143.78
2022-09-20T20:17:49.500Z,101152.94
2022-09-20T20:20:33.969Z,101148.91
2022-09-20T20:23:19.947Z,101149.88
2022-09-20T20:26:06.016Z,101155.91
2022-09-20T20:28:35.387Z,101155.47
2022-09-20T20:31:03.925Z,101161.47
2022-09-20T20:33:33.629Z,101169.19
2022-09-20T20:36:02.124Z,101176.91
2022-09-20T20:38:30.362Z,101169.47
2022-09-20T20:41:00.970Z,101178.84
2022-09-20T20:43:30.012Z,101180.78
2022-09-20T20:45:58.686Z,101181.25
2022-09-20T20:48:26.829Z,101189.88
2022-09-20T20:51:14.320Z,101183.06
2022-09-20T20:53:47.731Z,101187.78
2022-09-20T20:56:20.422Z,101193.81
2022-09-20T20:58:49.120Z,101190.69
2022-09-20T21:01:20.539Z,101195.88
2022-09-20T21:03:50.812Z,101189.59
2022-09-20T21:06:19.481Z,101200.50
2022-09-20T21:08:49.530Z,101196.72
2022-09-20T21:11:20.497Z,101201.06
2022-09-20T21:13:48.998Z,101193.22
2022-09-20T21:16:19.359Z,101204.97
2022-09-20T21:18:48.913Z,101207.47
2022-09-20T21:21:19.636Z,101211.53
2022-09-20T21:23:50.861Z,101210.13
2022-09-20T21:26:19.510Z,101210.41
2022-09-20T21:28:52.654Z,101220.31
2022-09-20T21:31:22.688Z,101219.75
2022-09-20T21:33:50.608Z,101220.75
2022-09-20T21:36:21.030Z,101232.88
2022-09-20T21:38:49.067Z,101226.44
2022-09-20T21:41:19.977Z,101226.19
2022-09-20T21:43:50.502Z,101224.78
2022-09-20T21:46:21.047Z,101226.06
2022-09-20T21:48:50.618Z,101226.47
2022-09-20T21:51:20.778Z,101232.19
2022-09-20T21:53:50.129Z,101232.34
2022-09-20T21:56:17.867Z,101235.41
2022-09-20T21:58:46.100Z,101235.88
2022-09-20T22:01:17.033Z,101237.94
2022-09-20T22:03:50.328Z,101237.69
2022-09-20T22:06:21.060Z,101238.22
2022-09-20T22:08:54.298Z,101248.56
2022-09-20T22:11:22.389Z,101238.22
2022-09-20T22:13:51.973Z,101244.22
2022-09-20T22:16:23.981Z,101240.88
2022-09-20T22:18:53.045Z,101246.63
2022-09-20T22:21:26.254Z,101245.22
2022-09-20T22:24:02.766Z,101245.78
2022-09-20T22:26:34.250Z,101245.31
2022-09-20T22:29:03.191Z,101245.47
2022-09-20T22:31:33.505Z,101248.41
2022-09-20T22:34:04.184Z,101244.91
2022-09-20T22:36:33.715Z,101243.22
2022-09-20T22:39:03.517Z,101251.06
2022-09-20T22:41:31.326Z,101249.97
2022-09-20T22:44:00.071Z,101247.44
2022-09-20T22:46:30.594Z,101254.28
2022-09-20T22:48:58.628Z,101248.44
2022-09-20T22:51:33.537Z,101249.16
2022-09-20T22:54:06.683Z,101249.72
2022-09-20T22:56:36.287Z,101246.66
2022-09-20T22:59:12.636Z,101248.63
2022-09-20T23:01:46.115Z,101247.34
2022-09-20T23:04:23.748Z,101254.63
2022-09-20T23:06:56.825Z,101245.25
2022-09-20T23:09:28.416Z,101244.97
2022-09-20T23:11:56.631Z,101248.63
2022-09-20T23:14:24.399Z,101237.69
2022-09-20T23:16:52.948Z,101244.28
2022-09-20T23:19:21.035Z,101248.31
2022-09-20T23:21:49.407Z,101243.31
2022-09-20T23:24:16.998Z,101247.06
2022-09-20T23:26:45.511Z,101246.94
2022-09-20T23:29:16.051Z,101244.13
2022-09-20T23:31:47.388Z,101246.47
2022-09-20T23:34:16.778Z,101247.31
2022-09-20T23:36:45.626Z,101244.41
2022-09-20T23:39:13.805Z,101249.00
2022-09-20T23:41:42.201Z,101243.00
2022-09-20T23:44:11.564Z,101244.53
2022-09-20T23:46:39.529Z,101250.00
2022-09-20T23:49:09.407Z,101246.09
2022-09-20T23:51:37.791Z,101249.16
2022-09-20T23:54:05.978Z,101253.34
2022-09-20T23:56:34.281Z,101252.78
2022-09-20T23:59:01.916Z,101258.41
